LFBH 210400Z AUTO 04008KT CAVOK 01/M01 Q1035 TEMPO BKN008

ElémentsDécodage
LFBH Station météo située sur l'aérodrome de LA-ROCHELLE Ile-de-Re
210400Z émis le 21 du mois à 04h00 UTC
AUTO Bulletin édité par un automate
04008KT vent du 040°, 08 noeuds
CAVOK Ceiling And Visibility OK
- Visibilité de 10 Km ou plus
- Pas de nuage au-dessous de 1500m ou au-dessous de l'altitude minimale du secteur la plus élevée (si>1500m) et absence de CB
- pas de temps présent significatif
01/M01 température 01°C, point de rosée -01°C
 soit une humidité relative de 86%
Q1035 la pression au niveau de la mer (QNH) est de 1035 hPa
TEMPO fluctuation temporaire prévue
BKN008 nuages morcelés (5/8 à 7/8) à 800 pieds